Rock Springs, Wisconsin
Current Conditions -  °F | °C
As of 11:55 PM on Sunday 19 Oct 2014 (Local Time) from KC35 Reporting Station
Clear Clear  
Wind Chill: 11°   Ceiling: Unl
Heat Index: 11°   Visibility: 10mi
Dew Point:   Wind: 5mph
Humidity: 75%   Direction: 270°W
Pressure: 29.78"   Gusts: NA
Location:  43.49°N, 89.92°W
Report Text: KC35 200455Z AUTO 27004KT 10SM CLR 11/07 A2978 RMK AO2 T01080065
Loading
Personal Weather Stations






























Interactive Weather Map
Tropical Storm Tracking
New forecast layout! Learn more

10-Day Weather Forecast

Advertisements
Track Severe Weather on mobile